^^
Saratoga-Weather Station Historical Data
Daily Summary for June 21, 2021 Units:  English    Metric   Both
Daily Weekly Monthly Yearly Custom
  High: Low: Average:
Temperature: 61.5 °F 43.7 °F 52.7 °F
Dew Point: 57.7 °F 41.5 °F 47.3 °F
Humidity: 94% 63% 82%
Wind Speed: 19.9mph 0mph 4.7mph
Wind Gust: 28mph - -
Wind- - WSW
Pressure: 30 in 29.4 in -
Precipitation: 0.74 in    
Historical Graphs
 
 
Tabular Data for June 21, 2021
Time Temperature Dew Point Pressure Wind Wind Speed Wind Gust Humidity Rainfall Rate (Hourly) solar
00:00 61.3 °F 57.7 °F 29.5 in NE 2 mph 5 mph 88% 0 in 0 W/m2
00:05 61.3 °F 57.7 °F 29.5 in NNW 4.9 mph 5 mph 88% 0 in 0 W/m2
00:10 61.3 °F 57.7 °F 29.5 in SE 4.9 mph 6 mph 88% 0 in 0 W/m2
00:15 61.2 °F 57.6 °F 29.5 in NNW 2.9 mph 8 mph 88% 0 in 0 W/m2
00:20 61.2 °F 57.6 °F 29.5 in East 2.9 mph 8 mph 88% 0 in 0 W/m2
00:25 61.2 °F 57.6 °F 29.5 in NNW 4 mph 8 mph 88% 0 in 0 W/m2
00:30 61.2 °F 57.6 °F 29.5 in ENE 4.9 mph 6 mph 88% 0 in 0 W/m2
00:35 61.2 °F 57.6 °F 29.5 in ENE 2.9 mph 7 mph 88% 0 in 0 W/m2
00:40 61.2 °F 57.6 °F 29.5 in North 2 mph 7 mph 88% 0 in 0 W/m2
00:45 61.2 °F 57.6 °F 29.5 in NW 2 mph 5 mph 88% 0 in 0 W/m2
00:50 61.2 °F 57.6 °F 29.5 in North 4 mph 4 mph 88% 0 in 0 W/m2
00:55 61.2 °F 57.6 °F 29.5 in North 2.9 mph 4 mph 88% 0 in 0 W/m2
01:01 61.2 °F 57.6 °F 29.5 in North 2 mph 8 mph 88% 0 in 0 W/m2
01:06 61.2 °F 57.2 °F 29.5 in ENE 2 mph 6 mph 87% 0 in 0 W/m2
01:11 61.2 °F 57.2 °F 29.5 in ENE 2 mph 8 mph 87% 0 in 0 W/m2
01:16 61.2 °F 57.2 °F 29.5 in NNW 4.9 mph 6 mph 87% 0 in 0 W/m2
01:21 61.3 °F 57.2 °F 29.5 in West 2.9 mph 8 mph 86% 0 in 0 W/m2
01:26 61.3 °F 56.8 °F 29.4 in NE 4.9 mph 13 mph 85% 0 in 0 W/m2
01:31 61.3 °F 56.8 °F 29.4 in NW 4.9 mph 10 mph 85% 0 in 0 W/m2
01:36 61.5 °F 57 °F 29.4 in ENE 0.9 mph 11 mph 85% 0 in 0 W/m2
01:41 61.5 °F 57 °F 29.4 in NE 4.9 mph 7 mph 85% 0 in 0 W/m2
01:46 61.5 °F 57 °F 29.4 in NE 0.9 mph 8 mph 85% 0 in 0 W/m2
01:51 61.3 °F 56.8 °F 29.4 in East 2 mph 8 mph 85% 0 in 0 W/m2
01:56 61.3 °F 57.2 °F 29.4 in ENE 2.9 mph 8 mph 86% 0 in 0 W/m2
02:01 61 °F 57 °F 29.5 in West 10.1 mph 13 mph 87% 0.09 in 0 W/m2
02:06 60.1 °F 56.8 °F 29.5 in West 4 mph 16 mph 89% 0.17 in 0 W/m2
02:11 59.2 °F 55.4 °F 29.5 in NW 0.9 mph 13 mph 87% 0.17 in 0 W/m2
02:16 58.1 °F 53.6 °F 29.5 in NW 2.9 mph 9 mph 85% 0.17 in 0 W/m2
02:21 57.4 °F 52.3 °F 29.5 in West 6 mph 14 mph 83% 0.17 in 0 W/m2
02:26 56.5 °F 51.6 °F 29.4 in WNW 6.9 mph 7 mph 84% 0.17 in 0 W/m2
02:31 55.9 °F 50.9 °F 29.4 in West 6 mph 15 mph 83% 0.17 in 0 W/m2
02:36 55.6 °F 50.9 °F 29.4 in NE 2 mph 5 mph 84% 0.18 in 0 W/m2
02:41 55.4 °F 50.4 °F 29.4 in West 2 mph 15 mph 83% 0.18 in 0 W/m2
02:46 55.2 °F 49.8 °F 29.4 in North 2.9 mph 5 mph 82% 0.18 in 0 W/m2
02:51 55.2 °F 49.8 °F 29.4 in NNW 2.9 mph 15 mph 82% 0.18 in 0 W/m2
02:56 55.2 °F 49.5 °F 29.4 in WNW 8.9 mph 18 mph 81% 0.18 in 0 W/m2
03:01 55.2 °F 49.5 °F 29.4 in WNW 6.9 mph 14 mph 81% 0.07 in 0 W/m2
03:06 55.2 °F 49.1 °F 29.4 in NW 11 mph 18 mph 80% 0.02 in 0 W/m2
03:11 55.4 °F 48.7 °F 29.4 in WSW 6.9 mph 13 mph 78% 0.01 in 0 W/m2
03:16 55.4 °F 48.4 °F 29.5 in WNW 11 mph 13 mph 77% 0.01 in 0 W/m2
03:21 55.6 °F 48.2 °F 29.5 in West 6.9 mph 12 mph 76% 0.01 in 0 W/m2
03:26 55.6 °F 48.2 °F 29.5 in NNW 10.1 mph 14 mph 76% 0.01 in 0 W/m2
03:31 55.6 °F 48.2 °F 29.5 in NNW 4 mph 19 mph 76% 0.01 in 0 W/m2
03:36 55.8 °F 48 °F 29.4 in NNW 4.9 mph 14 mph 75% 0 in 0 W/m2
03:41 55.8 °F 47.7 °F 29.5 in SW 6.9 mph 20 mph 74% 0 in 0 W/m2
03:46 55.9 °F 47.8 °F 29.4 in NNW 6 mph 15 mph 74% 0 in 0 W/m2
03:51 55.9 °F 47.5 °F 29.4 in West 18 mph 18 mph 73% 0 in 0 W/m2
03:56 55.9 °F 47.5 °F 29.4 in SW 8.1 mph 11 mph 73% 0 in 0 W/m2
04:01 55.9 °F 47.5 °F 29.4 in WSW 10.1 mph 12 mph 73% 0 in 0 W/m2
04:06 55.9 °F 47.5 °F 29.4 in NW 4 mph 17 mph 73% 0 in 0 W/m2
04:11 55.9 °F 47.5 °F 29.4 in NNW 4 mph 20 mph 73% 0 in 0 W/m2
04:16 56.1 °F 47.7 °F 29.4 in West 8.1 mph 16 mph 73% 0 in 0 W/m2
04:21 56.1 °F 47.7 °F 29.4 in NE 2.9 mph 15 mph 73% 0 in 0 W/m2
04:26 56.1 °F 47.7 °F 29.4 in SW 8.1 mph 20 mph 73% 0 in 0 W/m2
04:31 56.1 °F 47.7 °F 29.4 in North 8.1 mph 16 mph 73% 0 in 0 W/m2
04:36 56.1 °F 47.7 °F 29.4 in NNW 6 mph 17 mph 73% 0 in 0 W/m2
04:41 56.1 °F 47.7 °F 29.4 in WNW 4.9 mph 14 mph 73% 0 in 0 W/m2
04:46 56.1 °F 47.7 °F 29.4 in North 8.1 mph 10 mph 73% 0 in 0 W/m2
04:51 56.1 °F 47.7 °F 29.4 in North 6.9 mph 13 mph 73% 0 in 0 W/m2
04:56 56.1 °F 47.7 °F 29.4 in SSW 6 mph 12 mph 73% 0 in 0 W/m2
05:01 55.9 °F 47.8 °F 29.4 in NNW 4 mph 11 mph 74% 0 in 0 W/m2
05:06 55.9 °F 48.2 °F 29.4 in ENE 8.9 mph 17 mph 75% 0 in 0 W/m2
05:11 55.6 °F 48.2 °F 29.5 in NNW 8.1 mph 18 mph 76% 0 in 0 W/m2
05:17 55.6 °F 48.2 °F 29.5 in WSW 10.1 mph 17 mph 76% 0 in 0 W/m2
05:22 55.6 °F 48.2 °F 29.5 in WSW 8.1 mph 24 mph 76% 0 in 0 W/m2
05:27 55.6 °F 47.8 °F 29.5 in WSW 8.9 mph 16 mph 75% 0 in 0 W/m2
05:32 55.8 °F 48 °F 29.5 in WSW 2.9 mph 28 mph 75% 0 in 0 W/m2
05:37 55.8 °F 47.7 °F 29.5 in SW 2 mph 17 mph 74% 0 in 0 W/m2
05:42 55.8 °F 47.7 °F 29.5 in West 6.9 mph 28 mph 74% 0 in 0 W/m2
05:47 55.8 °F 47.3 °F 29.5 in WNW 4.9 mph 13 mph 73% 0 in 0 W/m2
05:52 55.6 °F 47.1 °F 29.5 in West 2.9 mph 12 mph 73% 0 in 0 W/m2
05:57 55.4 °F 47.3 °F 29.5 in West 6.9 mph 13 mph 74% 0 in 0 W/m2
06:02 55.2 °F 47.1 °F 29.5 in West 11 mph 13 mph 74% 0 in 0 W/m2
06:07 54.9 °F 47.1 °F 29.5 in NW 4.9 mph 21 mph 75% 0 in 0 W/m2
06:12 54.7 °F 46.9 °F 29.5 in SW 10.1 mph 19 mph 75% 0 in 0 W/m2
06:17 54.7 °F 46.6 °F 29.5 in East 4 mph 15 mph 74% 0 in 0 W/m2
06:22 55 °F 46.2 °F 29.5 in West 11 mph 18 mph 72% 0 in 0 W/m2
06:27 55 °F 46.2 °F 29.5 in NW 6 mph 12 mph 72% 0 in 0 W/m2
06:32 55 °F 46.2 °F 29.5 in West 17 mph 24 mph 72% 0 in 0 W/m2
06:37 55 °F 45.9 °F 29.5 in West 2 mph 19 mph 71% 0 in 0 W/m2
06:42 55 °F 46.2 °F 29.5 in NNE 2.9 mph 24 mph 72% 0 in 0 W/m2
06:47 55 °F 46.2 °F 29.5 in WNW 11 mph 22 mph 72% 0 in 0 W/m2
06:52 54.9 °F 46 °F 29.5 in West 11 mph 15 mph 72% 0 in 0 W/m2
06:57 54.7 °F 46.2 °F 29.5 in WSW 14.1 mph 25 mph 73% 0 in 0 W/m2
07:02 54.3 °F 46.6 °F 29.5 in West 4 mph 16 mph 75% 0 in 0 W/m2
07:07 53.4 °F 47.1 °F 29.5 in West 6 mph 13 mph 79% 0 in 0 W/m2
07:12 52.7 °F 47.3 °F 29.5 in North 4.9 mph 14 mph 82% 0 in 0 W/m2
07:17 52.2 °F 47.5 °F 29.5 in WSW 8.1 mph 14 mph 84% 0.01 in 0 W/m2
07:22 51.6 °F 47.3 °F 29.5 in SW 2 mph 15 mph 85% 0.02 in 0 W/m2
07:27 51.4 °F 47.5 °F 29.5 in West 6.9 mph 11 mph 86% 0.02 in 0 W/m2
07:32 51.4 °F 47.5 °F 29.5 in NW 10.1 mph 15 mph 86% 0.02 in 0 W/m2
07:37 51.3 °F 47.5 °F 29.5 in WNW 13 mph 13 mph 87% 0.02 in 0 W/m2
07:42 51.1 °F 47.7 °F 29.6 in WNW 12.1 mph 23 mph 88% 0.03 in 0 W/m2
07:47 51.1 °F 47.7 °F 29.6 in NW 6 mph 13 mph 88% 0.03 in 0 W/m2
07:52 50.7 °F 47.7 °F 29.6 in NNW 6 mph 22 mph 89% 0.03 in 0 W/m2
07:57 50.5 °F 47.7 °F 29.6 in WNW 8.1 mph 19 mph 90% 0.04 in 0 W/m2
08:02 50.4 °F 47.5 °F 29.6 in WSW 19 mph 19 mph 90% 0.06 in 0 W/m2
08:07 50.4 °F 47.8 °F 29.6 in WSW 11 mph 19 mph 91% 0.06 in 0 W/m2
08:12 50.4 °F 47.5 °F 29.6 in WNW 2.9 mph 10 mph 90% 0.06 in 0 W/m2
08:17 50.4 °F 47.5 °F 29.6 in West 8.9 mph 15 mph 90% 0.06 in 0 W/m2
08:22 50.4 °F 47.5 °F 29.6 in West 6.9 mph 15 mph 90% 0.05 in 0 W/m2
08:27 50.2 °F 47.3 °F 29.6 in NW 10.1 mph 14 mph 90% 0.04 in 0 W/m2
08:32 50.2 °F 47.3 °F 29.7 in NNW 4.9 mph 11 mph 90% 0.04 in 0 W/m2
08:37 50.2 °F 47.3 °F 29.7 in West 2.9 mph 21 mph 90% 0.03 in 11 W/m2
08:42 50.2 °F 47.1 °F 29.7 in West 8.9 mph 14 mph 89% 0.03 in 11 W/m2
08:47 50.2 °F 46.8 °F 29.7 in West 13 mph 21 mph 88% 0.03 in 11 W/m2
08:52 50.2 °F 46.8 °F 29.7 in WNW 6.9 mph 14 mph 88% 0.03 in 21 W/m2
08:57 50.2 °F 46.4 °F 29.7 in West 8.1 mph 10 mph 87% 0.02 in 42 W/m2
09:02 50 °F 46 °F 29.7 in West 19.9 mph 20 mph 86% 0.01 in 62 W/m2
09:07 50 °F 45.7 °F 29.7 in WSW 8.1 mph 15 mph 85% 0 in 49 W/m2
09:12 50 °F 45.7 °F 29.7 in WNW 6 mph 13 mph 85% 0 in 53 W/m2
09:17 50.2 °F 45.9 °F 29.7 in West 2.9 mph 14 mph 85% 0 in 47 W/m2
09:22 50.2 °F 46.2 °F 29.7 in West 8.9 mph 14 mph 86% 0 in 56 W/m2
09:27 50.2 °F 46.2 °F 29.7 in WNW 8.1 mph 15 mph 86% 0 in 60 W/m2
09:32 50.4 °F 46 °F 29.7 in West 8.9 mph 16 mph 85% 0 in 51 W/m2
09:37 50.4 °F 46 °F 29.7 in NW 12.1 mph 15 mph 85% 0 in 76 W/m2
09:42 50.4 °F 46 °F 29.8 in West 14.1 mph 14 mph 85% 0 in 88 W/m2
09:47 50.5 °F 45.9 °F 29.8 in WNW 6 mph 15 mph 84% 0 in 74 W/m2
09:52 50.5 °F 45.9 °F 29.8 in West 11 mph 11 mph 84% 0 in 62 W/m2
09:57 50.5 °F 45.9 °F 29.8 in NNW 4 mph 8 mph 84% 0 in 62 W/m2
10:02 50.5 °F 45.9 °F 29.8 in WSW 6.9 mph 18 mph 84% 0 in 56 W/m2
10:07 50.5 °F 45.9 °F 29.8 in SSW 6.9 mph 15 mph 84% 0 in 83 W/m2
10:12 50.5 °F 45.9 °F 29.8 in WNW 11 mph 18 mph 84% 0 in 83 W/m2
10:17 50.7 °F 46.4 °F 29.8 in WNW 2 mph 11 mph 85% 0 in 67 W/m2
10:22 50.7 °F 46.4 °F 29.8 in West 4 mph 8 mph 85% 0 in 53 W/m2
10:27 50.7 °F 46.4 °F 29.8 in West 6.9 mph 9 mph 85% 0 in 69 W/m2
10:32 50.9 °F 46.6 °F 29.8 in West 6 mph 11 mph 85% 0 in 70 W/m2
10:37 51.1 °F 46.8 °F 29.8 in West 2 mph 9 mph 85% 0 in 77 W/m2
10:42 51.3 °F 46.6 °F 29.8 in NW 2.9 mph 9 mph 84% 0 in 63 W/m2
10:47 51.3 °F 46.2 °F 29.8 in North 4 mph 12 mph 83% 0 in 95 W/m2
10:52 51.4 °F 46.4 °F 29.8 in ENE 2 mph 9 mph 83% 0 in 90 W/m2
10:57 51.6 °F 46.2 °F 29.8 in SW 0.9 mph 6 mph 82% 0 in 195 W/m2
11:03 52 °F 46.6 °F 29.8 in SW 2.9 mph 13 mph 82% 0 in 116 W/m2
11:08 52.3 °F 46.8 °F 29.8 in SE 2.9 mph 12 mph 81% 0 in 220 W/m2
11:13 52.5 °F 46.6 °F 29.8 in NNW 4 mph 6 mph 80% 0 in 113 W/m2
11:18 52.7 °F 46.4 °F 29.8 in West 2.9 mph 12 mph 79% 0 in 98 W/m2
11:23 52.5 °F 46.6 °F 29.8 in SSW 6 mph 6 mph 80% 0 in 84 W/m2
11:28 52.5 °F 46.2 °F 29.8 in West 11 mph 12 mph 79% 0 in 113 W/m2
11:33 52.7 °F 46.4 °F 29.8 in West 0.9 mph 11 mph 79% 0 in 105 W/m2
11:38 52.9 °F 46.6 °F 29.8 in West 4 mph 12 mph 79% 0 in 86 W/m2
11:43 52.9 °F 46.6 °F 29.8 in WNW 2 mph 13 mph 79% 0 in 134 W/m2
11:48 52.9 °F 46.6 °F 29.8 in WNW 8.1 mph 12 mph 79% 0 in 221 W/m2
11:53 53.2 °F 46.9 °F 29.8 in West 13 mph 13 mph 79% 0 in 128 W/m2
11:58 53.2 °F 46.9 °F 29.8 in West 2.9 mph 11 mph 79% 0 in 69 W/m2
12:03 53.4 °F 47.1 °F 29.8 in NW 2 mph 10 mph 79% 0 in 176 W/m2
12:08 53.8 °F 47.5 °F 29.8 in WNW 2.9 mph 17 mph 79% 0 in 207 W/m2
12:13 54 °F 47.3 °F 29.8 in SE 2.9 mph 14 mph 78% 0 in 227 W/m2
12:18 54.3 °F 47.7 °F 29.8 in Calm   10 mph 78% 0 in 120 W/m2
12:23 54.5 °F 47.5 °F 29.8 in NW 2.9 mph 15 mph 77% 0 in 113 W/m2
12:28 54.3 °F 46.9 °F 29.8 in NW 4.9 mph 12 mph 76% 0 in 186 W/m2
12:33 54.5 °F 47.1 °F 29.8 in NW 10.1 mph 15 mph 76% 0 in 114 W/m2
12:38 54.7 °F 46.6 °F 29.8 in NNE 0.9 mph 10 mph 74% 0 in 171 W/m2
12:43 55 °F 46.2 °F 29.8 in West 2.9 mph 13 mph 72% 0 in 202 W/m2
12:48 55.2 °F 46 °F 29.8 in NW 4 mph 12 mph 71% 0 in 388 W/m2
12:53 55.8 °F 46.6 °F 29.8 in West 8.1 mph 18 mph 71% 0 in 552 W/m2
12:58 56.1 °F 46.4 °F 29.8 in South 6.9 mph 15 mph 70% 0 in 461 W/m2
13:03 56.3 °F 46.2 °F 29.8 in WNW 6.9 mph 10 mph 69% 0 in 167 W/m2
13:08 56.3 °F 46.2 °F 29.8 in SW 2 mph 15 mph 69% 0 in 179 W/m2
13:13 56.5 °F 46.4 °F 29.8 in WNW 2 mph 17 mph 69% 0 in 179 W/m2
13:18 56.5 °F 46.4 °F 29.8 in WSW 8.9 mph 9 mph 69% 0 in 90 W/m2
13:23 56.5 °F 46.4 °F 29.8 in NW 0.9 mph 14 mph 69% 0 in 107 W/m2
13:28 56.1 °F 46 °F 29.8 in WNW 6.9 mph 11 mph 69% 0 in 105 W/m2
13:33 56.1 °F 46 °F 29.8 in West 2.9 mph 9 mph 69% 0 in 181 W/m2
13:38 56.5 °F 46.8 °F 29.8 in Calm   4 mph 70% 0 in 216 W/m2
13:43 56.7 °F 45.9 °F 29.8 in WNW 6.9 mph 14 mph 67% 0 in 118 W/m2
13:48 56.5 °F 46 °F 29.8 in NW 2 mph 13 mph 68% 0 in 206 W/m2
13:53 56.5 °F 46 °F 29.8 in West 2.9 mph 9 mph 68% 0 in 163 W/m2
13:58 56.7 °F 45.9 °F 29.8 in West 4 mph 15 mph 67% 0 in 149 W/m2
14:03 56.5 °F 45.7 °F 29.8 in NNE 2.9 mph 11 mph 67% 0 in 86 W/m2
14:08 56.3 °F 45.1 °F 29.8 in WNW 2.9 mph 11 mph 66% 0 in 179 W/m2
14:13 56.5 °F 45.3 °F 29.8 in NW 4 mph 7 mph 66% 0 in 165 W/m2
14:18 56.8 °F 45.7 °F 29.8 in WNW 4.9 mph 17 mph 66% 0 in 188 W/m2
14:23 56.8 °F 45.1 °F 29.8 in WNW 6 mph 19 mph 65% 0 in 144 W/m2
14:28 56.7 °F 45.5 °F 29.8 in NW 8.1 mph 8 mph 66% 0 in 141 W/m2
14:33 56.7 °F 45.5 °F 29.8 in Calm   19 mph 66% 0 in 160 W/m2
14:38 56.7 °F 45.5 °F 29.8 in NW 2 mph 8 mph 66% 0 in 125 W/m2
14:43 56.7 °F 45.5 °F 29.8 in NNW 0.9 mph 11 mph 66% 0 in 123 W/m2
14:48 56.8 °F 45.1 °F 29.8 in North 2.9 mph 13 mph 65% 0 in 167 W/m2
14:53 56.8 °F 45.1 °F 29.8 in WNW 2.9 mph 8 mph 65% 0 in 239 W/m2
14:58 56.8 °F 45.7 °F 29.8 in WSW 4 mph 13 mph 66% 0 in 127 W/m2
15:03 56.8 °F 45.1 °F 29.8 in North 2.9 mph 12 mph 65% 0 in 142 W/m2
15:08 56.8 °F 45.7 °F 29.8 in West 4 mph 7 mph 66% 0 in 146 W/m2
15:13 56.8 °F 46 °F 29.8 in North 0.9 mph 3 mph 67% 0 in 111 W/m2
15:18 56.8 °F 45.1 °F 29.8 in NW 4 mph 12 mph 65% 0 in 181 W/m2
15:23 57 °F 45 °F 29.8 in West 8.9 mph 20 mph 64% 0 in 123 W/m2
15:28 57 °F 45 °F 29.8 in NW 4.9 mph 16 mph 64% 0 in 88 W/m2
15:33 57 °F 45 °F 29.8 in West 4 mph 13 mph 64% 0 in 127 W/m2
15:38 56.8 °F 44.4 °F 29.8 in WNW 4 mph 16 mph 63% 0 in 120 W/m2
15:43 56.8 °F 44.8 °F 29.8 in NW 8.9 mph 12 mph 64% 0 in 98 W/m2
15:48 56.8 °F 45.1 °F 29.8 in West 4 mph 6 mph 65% 0 in 97 W/m2
15:53 56.8 °F 45.1 °F 29.8 in NNE 2.9 mph 8 mph 65% 0 in 91 W/m2
15:58 56.7 °F 45.5 °F 29.8 in NNW 0.9 mph 13 mph 66% 0 in 95 W/m2
16:03 56.5 °F 45.7 °F 29.8 in SSW 4.9 mph 10 mph 67% 0 in 83 W/m2
16:08 56.5 °F 45.7 °F 29.8 in WNW 6.9 mph 10 mph 67% 0 in 58 W/m2
16:13 55.8 °F 46 °F 29.8 in WNW 6 mph 10 mph 70% 0 in 37 W/m2
16:18 55.2 °F 46 °F 29.8 in WNW 0.9 mph 9 mph 71% 0 in 62 W/m2
16:23 55 °F 46.9 °F 29.8 in WNW 2.9 mph 4 mph 74% 0 in 26 W/m2
16:28 54.3 °F 46.9 °F 29.8 in NW 10.1 mph 11 mph 76% 0.01 in 26 W/m2
16:33 53.8 °F 47.1 °F 29.8 in Calm   3 mph 78% 0.02 in 28 W/m2
16:38 53.2 °F 47.3 °F 29.8 in North 0.9 mph 10 mph 80% 0.02 in 26 W/m2
16:43 53.1 °F 47.3 °F 29.8 in NW 2.9 mph 15 mph 81% 0.02 in 16 W/m2
16:48 52.7 °F 47.7 °F 29.8 in SSW 4.9 mph 8 mph 83% 0.03 in 19 W/m2
16:53 52.3 °F 47.7 °F 29.8 in NNW 4.9 mph 15 mph 84% 0.05 in 12 W/m2
16:58 52 °F 47.7 °F 29.8 in WNW 2.9 mph 5 mph 85% 0.06 in 12 W/m2
17:03 51.4 °F 47.7 °F 29.8 in West 4 mph 9 mph 87% 0.08 in 11 W/m2
17:08 51.3 °F 47.8 °F 29.8 in NW 8.1 mph 9 mph 88% 0.1 in 14 W/m2
17:13 51.1 °F 48 °F 29.8 in West 2.9 mph 7 mph 89% 0.11 in 16 W/m2
17:18 51.1 °F 48.2 °F 29.8 in NNW 0.9 mph 9 mph 90% 0.12 in 14 W/m2
17:23 51.1 °F 48.2 °F 29.8 in WSW 0.9 mph 4 mph 90% 0.13 in 12 W/m2
17:28 50.9 °F 48 °F 29.8 in WNW 0.9 mph 3 mph 90% 0.13 in 18 W/m2
17:33 50.9 °F 48 °F 29.8 in NW 0.9 mph 3 mph 90% 0.13 in 12 W/m2
17:38 50.9 °F 48.4 °F 29.8 in WSW 2 mph 5 mph 91% 0.13 in 9 W/m2
17:43 50.7 °F 48.2 °F 29.8 in WSW 2 mph 7 mph 91% 0.13 in 7 W/m2
17:48 50.7 °F 48.2 °F 29.8 in WNW 6.9 mph 7 mph 91% 0.14 in 5 W/m2
17:53 50.7 °F 48.2 °F 29.8 in West 2.9 mph 6 mph 91% 0.14 in 7 W/m2
17:58 50.7 °F 48.2 °F 29.8 in SW 4 mph 6 mph 91% 0.13 in 0 W/m2
18:03 50.5 °F 48.4 °F 29.8 in SE 0.9 mph 2 mph 92% 0.14 in 0 W/m2
18:08 50.5 °F 48.4 °F 29.8 in NW 4.9 mph 8 mph 92% 0.13 in 0 W/m2
18:13 50.5 °F 48.4 °F 29.8 in West 2 mph 6 mph 92% 0.16 in 0 W/m2
18:18 50.4 °F 48.2 °F 29.8 in South 2 mph 13 mph 92% 0.17 in 0 W/m2
18:23 50.2 °F 48 °F 29.8 in West 2.9 mph 4 mph 92% 0.17 in 0 W/m2
18:28 50.2 °F 48 °F 29.8 in West 2 mph 5 mph 92% 0.17 in 0 W/m2
18:33 50.2 °F 48 °F 29.8 in West 8.1 mph 8 mph 92% 0.17 in 0 W/m2
18:38 50.2 °F 48 °F 29.8 in WNW 2.9 mph 7 mph 92% 0.18 in 0 W/m2
18:43 50 °F 47.8 °F 29.8 in West 2.9 mph 3 mph 92% 0.2 in 0 W/m2
18:48 50 °F 48 °F 29.8 in SW 2 mph 4 mph 93% 0.2 in 0 W/m2
18:53 49.8 °F 47.8 °F 29.8 in WSW 4.9 mph 7 mph 93% 0.2 in 0 W/m2
18:58 49.8 °F 47.8 °F 29.8 in West 2 mph 3 mph 93% 0.2 in 0 W/m2
19:03 49.8 °F 47.8 °F 29.8 in West 0.9 mph 3 mph 93% 0.2 in 0 W/m2
19:08 49.6 °F 47.7 °F 29.8 in Calm   4 mph 93% 0.2 in 0 W/m2
19:13 49.6 °F 47.7 °F 29.9 in WNW 0.9 mph 2 mph 93% 0.17 in 0 W/m2
19:18 49.6 °F 48 °F 29.9 in WNW 4.9 mph 9 mph 94% 0.17 in 0 W/m2
19:23 48.9 °F 46.8 °F 29.9 in WNW 2 mph 6 mph 92% 0.18 in 0 W/m2
19:29 48.4 °F 45.9 °F 29.9 in NW 0.9 mph 8 mph 91% 0.18 in 0 W/m2
19:34 47.8 °F 45.3 °F 29.9 in WSW 2.9 mph 4 mph 91% 0.17 in 0 W/m2
19:39 47.5 °F 45 °F 29.9 in WSW 2 mph 2 mph 91% 0.15 in 0 W/m2
19:44 47.1 °F 44.6 °F 29.9 in WNW 0.9 mph 3 mph 91% 0.13 in 0 W/m2
19:49 46.9 °F 44.8 °F 29.9 in WSW 2 mph 3 mph 92% 0.12 in 0 W/m2
19:54 46.8 °F 44.6 °F 29.9 in Calm   2 mph 92% 0.1 in 0 W/m2
19:59 46.8 °F 44.6 °F 29.9 in Calm     92% 0.09 in 0 W/m2
20:04 46.6 °F 44.4 °F 29.9 in WSW 0.9 mph 2 mph 92% 0.07 in 0 W/m2
20:09 46.6 °F 44.6 °F 29.9 in Calm   2 mph 93% 0.06 in 0 W/m2
20:14 46.6 °F 44.6 °F 29.9 in Calm     93% 0.05 in 0 W/m2
20:19 46.4 °F 44.4 °F 29.9 in Calm   3 mph 93% 0.05 in 0 W/m2
20:24 46.2 °F 44.2 °F 29.9 in WSW 0.9 mph 2 mph 93% 0.02 in 0 W/m2
20:29 46 °F 44.1 °F 29.9 in WSW 2 mph 2 mph 93% 0.02 in 0 W/m2
20:34 46 °F 44.1 °F 29.9 in West 0.9 mph 3 mph 93% 0.01 in 0 W/m2
20:39 46 °F 44.1 °F 29.9 in WSW 2.9 mph 4 mph 93% 0.01 in 0 W/m2
20:44 46 °F 44.1 °F 29.9 in West 0.9 mph 3 mph 93% 0.01 in 0 W/m2
20:49 46 °F 44.1 °F 29.9 in West 2 mph 2 mph 93% 0.01 in 0 W/m2
20:54 45.9 °F 43.9 °F 29.9 in NW 2 mph 2 mph 93% 0.01 in 0 W/m2
20:59 45.7 °F 43.7 °F 29.9 in NW 0.9 mph 2 mph 93% 0.01 in 0 W/m2
21:04 45.3 °F 43.3 °F 29.9 in West 2.9 mph 3 mph 93% 0.01 in 0 W/m2
21:09 45.1 °F 43.2 °F 29.9 in West 0.9 mph 3 mph 93% 0.01 in 0 W/m2
21:14 45 °F 43 °F 29.9 in West 4 mph 4 mph 93% 0.01 in 0 W/m2
21:19 44.8 °F 42.8 °F 29.9 in West 4 mph 6 mph 93% 0 in 0 W/m2
21:24 44.8 °F 43.2 °F 29.9 in WSW 4.9 mph 5 mph 94% 0 in 0 W/m2
21:29 44.8 °F 43.2 °F 29.9 in West 4 mph 7 mph 94% 0 in 0 W/m2
21:34 44.8 °F 42.8 °F 29.9 in West 2.9 mph 6 mph 93% 0 in 0 W/m2
21:39 44.8 °F 42.8 °F 29.9 in West 2.9 mph 6 mph 93% 0 in 0 W/m2
21:44 44.8 °F 42.8 °F 29.9 in WSW 4 mph 6 mph 93% 0 in 0 W/m2
21:49 45 °F 43 °F 29.9 in West 2 mph 6 mph 93% 0 in 0 W/m2
21:54 44.8 °F 42.8 °F 29.9 in WNW 8.1 mph 9 mph 93% 0 in 0 W/m2
21:59 44.8 °F 42.8 °F 29.9 in West 2 mph 5 mph 93% 0 in 0 W/m2
22:04 44.8 °F 42.6 °F 30 in West 4 mph 9 mph 92% 0 in 0 W/m2
22:09 44.8 °F 42.6 °F 30 in WNW 4 mph 7 mph 92% 0 in 0 W/m2
22:14 44.8 °F 42.6 °F 30 in WNW 2 mph 9 mph 92% 0 in 0 W/m2
22:19 45 °F 42.8 °F 30 in West 6 mph 8 mph 92% 0 in 0 W/m2
22:24 45 °F 42.8 °F 30 in WSW 2.9 mph 8 mph 92% 0 in 0 W/m2
22:29 45 °F 42.8 °F 30 in WSW 2.9 mph 7 mph 92% 0 in 0 W/m2
22:34 45 °F 42.8 °F 30 in West 4 mph 7 mph 92% 0 in 0 W/m2
22:39 45 °F 42.8 °F 30 in West 4 mph 8 mph 92% 0 in 0 W/m2
22:44 45 °F 42.8 °F 30 in West 2.9 mph 6 mph 92% 0 in 0 W/m2
22:49 45 °F 42.8 °F 30 in West 2 mph 4 mph 92% 0 in 0 W/m2
22:54 44.8 °F 42.3 °F 30 in WNW 2.9 mph 3 mph 91% 0 in 0 W/m2
22:59 44.4 °F 41.9 °F 30 in West 4 mph 6 mph 91% 0 in 0 W/m2
23:04 44.4 °F 42.3 °F 30 in WNW 0.9 mph 3 mph 92% 0 in 0 W/m2
23:09 44.2 °F 42.1 °F 30 in WSW 2 mph 4 mph 92% 0 in 0 W/m2
23:14 44.2 °F 42.1 °F 30 in WSW 0.9 mph 3 mph 92% 0 in 0 W/m2
23:19 44.2 °F 42.1 °F 30 in West 2 mph 4 mph 92% 0 in 0 W/m2
23:24 44.2 °F 42.1 °F 30 in Calm   3 mph 92% 0 in 0 W/m2
23:29 44.2 °F 42.1 °F 30 in WNW 2.9 mph 7 mph 92% 0 in 0 W/m2
23:34 44.1 °F 41.9 °F 30 in West 2 mph 3 mph 92% 0 in 0 W/m2
23:39 43.9 °F 41.7 °F 30 in West 2.9 mph 7 mph 92% 0 in 0 W/m2
23:44 43.9 °F 41.7 °F 30 in West 2.9 mph 7 mph 92% 0 in 0 W/m2
23:49 43.9 °F 41.7 °F 30 in West 2 mph 4 mph 92% 0 in 0 W/m2
23:54 43.9 °F 41.7 °F 30 in West 6.9 mph 7 mph 92% 0 in 0 W/m2
23:59 43.7 °F 41.5 °F 30 in West 2.9 mph 8 mph 92% 0 in 0 W/m2
Juneau County Weather
Compliments of Weather Underground - 4 mb